Time;durP1;ratioP1;P1;durP2;ratioP2;P2;SDS_P1;SDS_P2;PMS_P1;PMS_P2;Temp;Humidity;BMP_temperature;BMP_pressure;BME280_temperature;BME280_humidity;BME280_pressure;Samples;Min_cycle;Max_cycle;Signal;HPM_P1;HPM_P2
2021/12/21 00:01:35;;;;;;;3.47;1.40;;;;;;;6.42;100.00;102212.13;5102649;28;20127;-92
2021/12/21 00:04:02;;;;;;;3.13;1.40;;;;;;;6.50;100.00;102214.72;5104231;28;20046;-91
2021/12/21 00:06:29;;;;;;;5.82;2.20;;;;;;;6.38;100.00;102218.19;5094599;28;20048;-92
2021/12/21 00:08:56;;;;;;;3.67;1.70;;;;;;;6.46;100.00;102224.25;5089593;28;20060;-91
2021/12/21 00:11:22;;;;;;;3.85;1.60;;;;;;;6.40;100.00;102230.31;5093454;28;20055;-91
2021/12/21 00:19:21;;;;;;;7.15;2.63;;;;;;;6.23;100.00;102225.06;5110383;27;20127;-91
2021/12/21 00:21:55;;;;;;;3.80;1.55;;;;;;;6.49;100.00;102242.50;5088585;28;20123;-92
2021/12/21 00:24:29;;;;;;;5.32;2.08;;;;;;;6.53;100.00;102232.97;5097477;28;20139;-90
2021/12/21 00:26:56;;;;;;;5.15;1.80;;;;;;;6.02;100.00;102183.34;5086994;28;20130;-91
2021/12/21 00:29:23;;;;;;;5.18;1.90;;;;;;;6.21;100.00;102216.38;5085791;28;20056;-91
2021/12/21 00:31:50;;;;;;;5.10;1.88;;;;;;;6.32;100.00;102232.06;5086737;28;20152;-91
2021/12/21 00:34:17;;;;;;;5.00;1.70;;;;;;;6.13;100.00;102189.47;5085531;28;20048;-91
2021/12/21 00:36:46;;;;;;;7.78;1.70;;;;;;;6.29;100.00;102200.81;5090596;28;20035;-90
2021/12/21 00:39:15;;;;;;;4.38;1.65;;;;;;;6.12;100.00;102208.53;5087377;28;20054;-90
2021/12/21 00:41:42;;;;;;;5.72;1.80;;;;;;;6.34;100.00;102243.31;5088099;28;20083;-91
2021/12/21 00:44:09;;;;;;;5.85;1.70;;;;;;;6.05;100.00;102170.38;5091134;28;20043;-90
2021/12/21 00:46:38;;;;;;;4.07;1.60;;;;;;;6.29;100.00;102224.22;5117541;27;20138;-91
2021/12/21 00:49:16;;;;;;;5.60;2.10;;;;;;;6.15;100.00;102225.91;5091196;28;20458;-91
2021/12/21 00:51:45;;;;;;;4.60;1.70;;;;;;;6.42;100.00;102249.41;5093767;28;20501;-91
2021/12/21 00:54:12;;;;;;;3.17;1.50;;;;;;;6.28;100.00;102238.09;5106422;28;20079;-91
2021/12/21 00:56:39;;;;;;;6.15;2.17;;;;;;;6.02;100.00;102219.75;5122230;27;20495;-91
2021/12/21 00:59:07;;;;;;;4.90;1.63;;;;;;;6.07;100.00;102212.84;5089741;28;20123;-90
2021/12/21 01:01:35;;;;;;;3.53;1.50;;;;;;;6.03;100.00;102200.69;5105883;28;20558;-90
2021/12/21 01:04:07;;;;;;;5.35;1.77;;;;;;;5.98;100.00;102241.41;5081428;28;20163;-92
2021/12/21 01:06:41;;;;;;;4.53;1.88;;;;;;;6.03;100.00;102237.97;5083443;27;20047;-92
2021/12/21 01:11:43;;;;;;;3.72;1.60;;;;;;;5.98;100.00;102233.59;5110943;27;20051;-91
2021/12/21 01:16:58;;;;;;;5.03;1.88;;;;;;;5.60;100.00;102182.25;5110174;27;20063;-93
2021/12/21 01:19:43;;;;;;;3.75;1.50;;;;;;;5.65;100.00;102186.59;5124301;27;20553;-93
2021/12/21 01:35:28;;;;;;;4.60;2.17;;;;;;;4.96;100.00;102175.72;5103811;28;20040;-92
2021/12/21 01:51:14;;;;;;;3.47;1.55;;;;;;;4.95;100.00;102171.38;5106734;27;20694;-92
2021/12/21 01:53:42;;;;;;;8.45;2.15;;;;;;;4.62;100.00;102135.59;5088077;28;20078;-92
2021/12/21 01:56:10;;;;;;;4.57;1.45;;;;;;;4.70;100.00;102152.97;5104612;28;20048;-92
2021/12/21 01:58:39;;;;;;;4.43;1.83;;;;;;;4.83;100.00;102181.63;5090055;28;20105;-88
2021/12/21 02:01:09;;;;;;;4.53;1.95;;;;;;;4.25;100.00;102163.72;5083971;28;20171;-90
2021/12/21 02:03:36;;;;;;;3.90;1.60;;;;;;;4.27;100.00;102185.38;5119907;27;20123;-90
2021/12/21 02:06:04;;;;;;;4.30;1.88;;;;;;;4.03;100.00;102183.34;5085811;28;20067;-90
2021/12/21 02:08:31;;;;;;;3.90;1.60;;;;;;;4.09;100.00;102166.16;5086465;28;20058;-91
2021/12/21 02:11:04;;;;;;;3.63;1.60;;;;;;;4.60;100.00;102207.34;5099298;28;20135;-92
2021/12/21 02:13:36;;;;;;;3.92;1.63;;;;;;;3.94;100.00;102125.34;5084176;28;20510;-91
2021/12/21 02:16:06;;;;;;;3.90;1.60;;;;;;;4.17;100.00;102145.50;5097487;28;20051;-90
2021/12/21 02:21:41;;;;;;;5.05;1.70;;;;;;;4.05;100.00;102169.56;5103625;28;20134;-90
2021/12/21 02:23:58;;;;;;;5.28;1.80;;;;;;;3.86;100.00;102193.47;5101215;28;20162;-89
2021/12/21 02:29:25;;;;;;;4.05;1.83;;;;;;;3.85;100.00;102207.31;5103803;28;20127;-89
2021/12/21 02:31:53;;;;;;;5.13;1.88;;;;;;;3.65;100.00;102219.94;5100789;28;20446;-89
2021/12/21 02:34:22;;;;;;;4.57;1.77;;;;;;;3.46;100.00;102182.56;5086055;28;20138;-89
2021/12/21 02:36:52;;;;;;;4.10;1.80;;;;;;;3.54;100.00;102212.03;5087331;28;20472;-89
2021/12/21 02:39:20;;;;;;;4.40;1.80;;;;;;;3.22;100.00;102202.94;5085963;28;20101;-89
2021/12/21 02:41:47;;;;;;;4.20;1.70;;;;;;;3.15;100.00;102211.44;5101794;28;20135;-90
2021/12/21 02:44:14;;;;;;;2.85;1.45;;;;;;;3.25;100.00;102178.78;5106375;28;20118;-90
2021/12/21 02:46:42;;;;;;;3.65;1.60;;;;;;;3.30;100.00;102216.00;5105078;28;20050;-90
2021/12/21 02:49:11;;;;;;;3.10;1.45;;;;;;;3.30;100.00;102209.94;5103756;28;20079;-90
2021/12/21 02:51:41;;;;;;;3.10;1.58;;;;;;;3.32;100.00;102210.84;5084601;28;20048;-90
2021/12/21 02:54:10;;;;;;;3.47;1.50;;;;;;;3.29;100.00;102205.59;5091698;28;20138;-90
2021/12/21 02:56:37;;;;;;;4.18;1.70;;;;;;;2.79;100.00;102154.75;5089758;28;20075;-90
2021/12/21 02:59:04;;;;;;;3.28;1.40;;;;;;;3.01;100.00;102162.03;5083846;28;20048;-90
2021/12/21 03:01:33;;;;;;;3.03;1.50;;;;;;;3.34;100.00;102202.22;5084137;28;20059;-91
2021/12/21 03:04:01;;;;;;;4.45;1.65;;;;;;;3.18;100.00;102189.91;5088094;28;20139;-91
2021/12/21 03:09:38;;;;;;;2.33;1.20;;;;;;;3.21;100.00;102152.00;5103586;28;20082;-91
2021/12/21 03:14:39;;;;;;;3.88;1.60;;;;;;;3.42;100.00;102166.97;5103849;28;20444;-90
2021/12/21 03:17:07;;;;;;;4.88;1.88;;;;;;;3.41;100.00;102159.19;5115372;28;20060;-91
2021/12/21 03:19:34;;;;;;;3.53;1.58;;;;;;;3.47;100.00;102166.16;5100235;28;20437;-91
2021/12/21 03:22:01;;;;;;;3.78;1.70;;;;;;;3.55;100.00;102154.22;5116203;28;20492;-90
2021/12/21 03:24:28;;;;;;;4.90;2.10;;;;;;;3.60;100.00;102176.75;5113747;28;20452;-90
2021/12/21 03:26:55;;;;;;;4.47;1.85;;;;;;;3.24;100.00;102122.72;5109536;28;20047;-91
2021/12/21 03:29:23;;;;;;;5.43;1.83;;;;;;;3.40;100.00;102123.81;5086617;28;20189;-90
2021/12/21 03:31:50;;;;;;;3.35;1.70;;;;;;;3.42;100.00;102119.50;5104556;28;20139;-90
2021/12/21 03:34:17;;;;;;;5.15;2.00;;;;;;;3.40;100.00;102160.91;5089350;28;20457;-90
2021/12/21 03:36:44;;;;;;;5.32;1.95;;;;;;;3.39;100.00;102133.28;5109759;28;20127;-90
2021/12/21 03:39:17;;;;;;;5.47;1.67;;;;;;;3.25;100.00;102137.38;5087356;28;20127;-90
2021/12/21 03:41:55;;;;;;;4.05;1.80;;;;;;;3.24;100.00;102120.13;5124883;27;20072;-91
2021/12/21 03:44:23;;;;;;;3.20;1.67;;;;;;;3.38;100.00;102141.91;5086449;28;20147;-90
2021/12/21 03:46:53;;;;;;;4.00;1.92;;;;;;;3.49;100.00;102146.34;5104952;28;20127;-91
2021/12/21 03:52:17;;;;;;;4.07;1.80;;;;;;;3.57;100.00;102127.47;5104370;28;20134;-91
2021/12/21 03:54:47;;;;;;;6.75;2.65;;;;;;;3.50;100.00;102141.19;5088946;28;20110;-91
2021/12/21 03:57:15;;;;;;;6.15;2.20;;;;;;;3.75;100.00;102150.19;5090995;28;20456;-91
2021/12/21 03:59:44;;;;;;;5.88;2.28;;;;;;;3.36;100.00;102148.75;5106527;28;20052;-91
2021/12/21 04:02:12;;;;;;;4.22;1.83;;;;;;;3.51;100.00;102134.31;5104536;28;20143;-91
2021/12/21 04:04:41;;;;;;;4.78;2.08;;;;;;;3.58;100.00;102147.34;5087532;28;20461;-91
2021/12/21 04:07:08;;;;;;;4.22;1.90;;;;;;;3.47;100.00;102133.41;5088145;28;20051;-91
2021/12/21 04:09:34;;;;;;;4.28;2.00;;;;;;;3.83;100.00;102155.47;5087827;28;20055;-91
2021/12/21 04:12:01;;;;;;;4.75;1.90;;;;;;;3.76;100.00;102149.31;5109143;28;20055;-91
2021/12/21 04:14:29;;;;;;;4.28;1.65;;;;;;;3.79;100.00;102151.09;5090960;28;20046;-91
2021/12/21 04:16:57;;;;;;;5.43;2.08;;;;;;;3.63;100.00;102131.00;5116198;27;20053;-91
2021/12/21 04:19:24;;;;;;;4.32;1.95;;;;;;;3.73;100.00;102135.47;5099770;28;20458;-91
2021/12/21 04:21:51;;;;;;;6.75;2.35;;;;;;;3.68;100.00;102137.97;5083243;27;20142;-92
2021/12/21 04:24:18;;;;;;;5.38;2.03;;;;;;;3.69;100.00;102138.88;5094198;28;20519;-91
2021/12/21 04:26:46;;;;;;;6.82;2.45;;;;;;;3.70;100.00;102138.00;5090386;28;20675;-91
2021/12/21 04:29:13;;;;;;;5.35;2.17;;;;;;;3.69;100.00;102136.28;5106267;28;20048;-91
2021/12/21 04:31:40;;;;;;;3.72;1.60;;;;;;;3.91;100.00;102127.94;5106756;28;20138;-91
2021/12/21 04:34:07;;;;;;;5.93;2.33;;;;;;;3.80;100.00;102140.72;5085517;28;20047;-91
2021/12/21 04:36:34;;;;;;;4.05;1.67;;;;;;;3.91;100.00;102147.78;5085919;28;20445;-91
2021/12/21 04:39:04;;;;;;;3.75;1.70;;;;;;;3.79;100.00;102140.75;5107329;28;20150;-91
2021/12/21 04:41:32;;;;;;;3.97;1.60;;;;;;;3.77;100.00;102121.69;5086631;28;20083;-91
2021/12/21 04:44:00;;;;;;;5.00;1.85;;;;;;;3.72;100.00;102134.59;5093493;28;20134;-91
2021/12/21 04:46:27;;;;;;;3.67;1.60;;;;;;;3.66;100.00;102116.38;5089865;28;20046;-90
2021/12/21 04:48:54;;;;;;;4.38;1.70;;;;;;;3.76;100.00;102153.66;5124532;27;20067;-91
2021/12/21 04:51:22;;;;;;;2.80;1.52;;;;;;;3.68;100.00;102131.94;5108361;27;20109;-91
2021/12/21 04:53:48;;;;;;;4.05;1.88;;;;;;;3.73;100.00;102128.56;5090651;28;20131;-91
2021/12/21 04:56:15;;;;;;;5.30;2.20;;;;;;;3.58;100.00;102090.38;5119550;27;20471;-91
2021/12/21 04:58:42;;;;;;;5.38;2.10;;;;;;;3.14;100.00;102075.09;5101607;28;20102;-92
2021/12/21 05:01:09;;;;;;;4.68;1.95;;;;;;;3.65;100.00;102137.06;5086663;28;20135;-91
2021/12/21 05:03:36;;;;;;;4.60;2.03;;;;;;;3.34;100.00;102137.50;5090188;28;20127;-91
2021/12/21 05:06:03;;;;;;;4.05;1.77;;;;;;;3.27;100.00;102137.41;5090164;28;20054;-91
2021/12/21 05:08:35;;;;;;;3.75;1.73;;;;;;;3.40;100.00;102137.63;5089031;28;20131;-91
2021/12/21 05:11:06;;;;;;;2.72;1.52;;;;;;;3.85;100.00;102140.81;5102157;28;20135;-90
2021/12/21 05:13:36;;;;;;;3.80;1.40;;;;;;;3.80;100.00;102134.69;5089404;28;20078;-91
2021/12/21 05:16:04;;;;;;;2.80;1.50;;;;;;;3.89;100.00;102128.75;5085656;28;20054;-91
2021/12/21 05:18:32;;;;;;;3.17;1.52;;;;;;;3.84;100.00;102094.13;5101935;28;20471;-91
2021/12/21 05:21:00;;;;;;;4.50;1.60;;;;;;;3.87;100.00;102130.47;5119723;27;20058;-91
2021/12/21 05:23:27;;;;;;;3.17;1.52;;;;;;;3.83;100.00;102116.59;5085681;28;20525;-91
2021/12/21 05:25:53;;;;;;;4.43;1.90;;;;;;;3.89;100.00;102114.06;5106813;27;20048;-91
2021/12/21 05:28:20;;;;;;;3.53;1.60;;;;;;;3.61;100.00;102089.53;5087234;28;20050;-91
2021/12/21 05:30:47;;;;;;;3.28;1.50;;;;;;;3.62;100.00;102088.69;5089871;28;20055;-91
2021/12/21 05:33:15;;;;;;;3.08;1.55;;;;;;;4.04;100.00;102128.06;5100813;27;20050;-91
2021/12/21 05:35:42;;;;;;;2.63;1.35;;;;;;;4.06;100.00;102127.25;5092350;28;20044;-91
2021/12/21 05:38:12;;;;;;;2.55;1.40;;;;;;;4.06;100.00;102122.06;5105265;27;20465;-91
2021/12/21 05:40:42;;;;;;;4.80;1.65;;;;;;;4.01;100.00;102096.94;5088751;28;20138;-91
2021/12/21 05:43:10;;;;;;;2.65;1.60;;;;;;;4.13;100.00;102125.59;5085226;28;20140;-91
2021/12/21 05:45:38;;;;;;;2.75;1.30;;;;;;;3.86;100.00;102095.91;5092696;27;20126;-91
2021/12/21 05:48:05;;;;;;;2.17;1.27;;;;;;;4.14;100.00;102133.41;5091335;28;20058;-91
2021/12/21 05:50:32;;;;;;;3.20;1.50;;;;;;;4.28;100.00;102124.88;5085522;28;20048;-89
2021/12/21 05:52:59;;;;;;;2.60;1.13;;;;;;;4.09;100.00;102106.53;5087332;28;20138;-89
2021/12/21 05:55:26;;;;;;;2.83;1.35;;;;;;;4.18;100.00;102105.78;5090252;27;20409;-87
2021/12/21 05:57:54;;;;;;;2.88;1.20;;;;;;;4.23;100.00;102095.44;5090114;28;20044;-90
2021/12/21 06:00:24;;;;;;;2.88;1.35;;;;;;;4.19;100.00;102110.09;5102406;28;20047;-89
2021/12/21 06:02:51;;;;;;;1.65;1.10;;;;;;;4.32;100.00;102111.09;5101864;28;20424;-89
2021/12/21 06:05:19;;;;;;;1.90;1.30;;;;;;;4.38;100.00;102101.66;5120083;27;20047;-90
2021/12/21 06:07:49;;;;;;;2.25;1.40;;;;;;;4.47;100.00;102108.66;5085006;28;20060;-90
2021/12/21 06:10:22;;;;;;;2.85;1.30;;;;;;;4.32;100.00;102100.72;5089082;28;20055;-90
2021/12/21 06:15:43;;;;;;;2.35;1.27;;;;;;;4.42;100.00;102114.66;5101454;28;20078;-89
2021/12/21 06:26:16;;;;;;;2.72;1.40;;;;;;;4.24;100.00;102098.06;5103317;28;20050;-90
2021/12/21 06:28:45;;;;;;;2.42;1.30;;;;;;;4.36;100.00;102115.47;5084779;28;20128;-90
2021/12/21 06:31:14;;;;;;;2.13;1.27;;;;;;;4.19;100.00;102090.22;5089366;28;20131;-90
2021/12/21 06:33:41;;;;;;;2.55;1.10;;;;;;;3.91;100.00;102047.59;5083090;28;20051;-90
2021/12/21 06:36:09;;;;;;;1.75;1.13;;;;;;;4.16;100.00;102115.25;5085816;28;20075;-90
2021/12/21 06:38:39;;;;;;;3.10;1.35;;;;;;;4.19;100.00;102112.69;5108227;28;20092;-90
2021/12/21 06:41:07;;;;;;;2.55;1.30;;;;;;;4.16;100.00;102081.53;5117389;27;20047;-89
2021/12/21 06:43:37;;;;;;;3.25;1.38;;;;;;;4.20;100.00;102098.88;5087475;28;20052;-89
2021/12/21 06:46:15;;;;;;;2.13;1.25;;;;;;;3.80;100.00;102051.78;5088424;28;20069;-89
2021/12/21 06:51:43;;;;;;;2.30;1.23;;;;;;;3.92;100.00;102095.13;5104708;28;20542;-89
2021/12/21 06:54:10;;;;;;;1.95;1.20;;;;;;;3.83;100.00;102074.28;5086984;28;20139;-90
2021/12/21 06:56:36;;;;;;;2.05;1.15;;;;;;;4.01;100.00;102094.34;5110209;28;20078;-88
2021/12/21 06:59:03;;;;;;;2.95;1.35;;;;;;;3.87;100.00;102086.41;5101730;28;20150;-89
2021/12/21 07:01:33;;;;;;;3.08;1.30;;;;;;;3.90;100.00;102070.91;5125161;27;20052;-90
2021/12/21 07:04:03;;;;;;;3.85;1.45;;;;;;;3.94;100.00;102078.72;5089420;28;20044;-90
2021/12/21 07:06:32;;;;;;;2.28;1.20;;;;;;;4.03;100.00;102070.16;5089465;28;20491;-90
2021/12/21 07:09:09;;;;;;;3.35;1.40;;;;;;;3.87;100.00;102069.13;5103319;28;20423;-89
2021/12/21 07:11:43;;;;;;;2.42;1.38;;;;;;;3.94;100.00;102088.22;5104496;28;20067;-90
2021/12/21 07:19:43;;;;;;;3.15;1.50;;;;;;;3.43;100.00;102028.03;5108224;28;20055;-90
2021/12/21 07:22:10;;;;;;;2.75;1.40;;;;;;;3.24;100.00;102011.41;5118782;28;20084;-90
2021/12/21 07:24:37;;;;;;;3.03;1.70;;;;;;;3.23;100.00;102045.88;5083955;28;20047;-89
2021/12/21 07:27:04;;;;;;;2.75;1.42;;;;;;;3.50;100.00;102071.28;5092695;28;20090;-90
2021/12/21 07:29:31;;;;;;;2.15;1.27;;;;;;;3.65;100.00;102065.44;5105389;28;20126;-90
2021/12/21 07:31:58;;;;;;;2.20;1.20;;;;;;;3.58;100.00;102066.22;5105391;28;20054;-90
2021/12/21 07:34:25;;;;;;;2.33;1.30;;;;;;;3.60;100.00;102059.31;5100881;28;20131;-90
2021/12/21 07:36:52;;;;;;;2.67;1.30;;;;;;;3.43;100.00;102069.44;5096725;28;20160;-91
2021/12/21 07:39:19;;;;;;;2.53;1.40;;;;;;;3.48;100.00;102057.44;5092511;28;20496;-90
2021/12/21 07:42:04;;;;;;;3.53;1.55;;;;;;;3.63;100.00;102063.66;5096289;28;20070;-90
2021/12/21 07:44:31;;;;;;;2.65;1.40;;;;;;;3.59;100.00;102065.34;5107286;28;20044;-90
2021/12/21 07:46:58;;;;;;;3.20;1.55;;;;;;;3.63;100.00;102064.56;5104942;28;20462;-91
2021/12/21 07:49:25;;;;;;;2.28;1.33;;;;;;;3.40;100.00;102022.84;5104053;28;20469;-91
2021/12/21 07:51:52;;;;;;;2.50;1.33;;;;;;;3.35;100.00;102030.53;5093383;28;20101;-92
2021/12/21 07:54:19;;;;;;;2.55;1.30;;;;;;;3.33;100.00;102031.34;5110233;28;20135;-91
2021/12/21 07:56:46;;;;;;;4.03;1.42;;;;;;;3.32;100.00;102058.09;5093143;28;20131;-91
2021/12/21 07:59:13;;;;;;;2.25;1.30;;;;;;;3.36;100.00;102039.16;5112461;28;20077;-91
2021/12/21 08:01:40;;;;;;;3.33;1.60;;;;;;;3.24;100.00;102032.13;5113862;28;20529;-91
2021/12/21 08:04:07;;;;;;;5.70;1.90;;;;;;;3.16;100.00;102010.41;5104327;28;20413;-92
2021/12/21 08:06:36;;;;;;;3.60;1.50;;;;;;;3.06;100.00;102027.53;5094087;28;20090;-91
2021/12/21 08:09:04;;;;;;;2.92;1.35;;;;;;;3.31;100.00;102052.06;5108291;28;20047;-91
2021/12/21 08:14:04;;;;;;;3.55;1.63;;;;;;;2.53;100.00;101971.56;5127049;27;20056;-91
2021/12/21 08:16:34;;;;;;;4.03;1.73;;;;;;;2.99;100.00;102055.06;5097945;28;20085;-91
2021/12/21 08:19:01;;;;;;;4.07;1.65;;;;;;;2.57;100.00;101978.53;5114313;28;20085;-91
2021/12/21 08:21:29;;;;;;;4.70;1.85;;;;;;;2.52;100.00;101967.25;5098417;28;20093;-91
2021/12/21 08:23:56;;;;;;;4.43;1.75;;;;;;;2.69;100.00;102005.41;5097600;28;20093;-91
2021/12/21 08:26:24;;;;;;;5.20;1.65;;;;;;;2.66;100.00;101967.47;5097648;28;20130;-92
2021/12/21 08:28:50;;;;;;;3.15;1.50;;;;;;;2.77;100.00;102015.03;5097388;28;20051;-92
2021/12/21 08:31:17;;;;;;;4.18;1.75;;;;;;;3.03;100.00;102055.97;5097932;28;20390;-92
2021/12/21 08:33:44;;;;;;;6.43;2.05;;;;;;;2.94;100.00;102045.47;5121340;27;20053;-91
2021/12/21 08:36:11;;;;;;;4.38;1.77;;;;;;;3.04;100.00;102037.84;5114241;28;20055;-91
2021/12/21 08:38:41;;;;;;;5.72;2.20;;;;;;;3.03;100.00;102066.31;5096448;28;20047;-91
2021/12/21 08:41:09;;;;;;;6.25;1.80;;;;;;;3.07;100.00;102060.34;5103327;27;20134;-91
2021/12/21 08:43:36;;;;;;;5.88;2.10;;;;;;;3.10;100.00;102067.25;5129921;27;20430;-91
2021/12/21 08:46:06;;;;;;;5.90;2.00;;;;;;;3.03;100.00;102069.78;5114370;28;20043;-91
2021/12/21 08:48:34;;;;;;;5.45;2.00;;;;;;;2.91;100.00;102059.22;5096214;28;20050;-92
2021/12/21 08:51:01;;;;;;;5.93;2.20;;;;;;;2.94;100.00;102053.22;5094540;28;20481;-92
2021/12/21 08:53:27;;;;;;;5.35;1.88;;;;;;;3.03;100.00;102079.25;5097961;28;20043;-92
2021/12/21 08:55:55;;;;;;;3.72;1.75;;;;;;;3.10;100.00;102081.09;5114134;28;20397;-91
2021/12/21 08:58:23;;;;;;;5.25;1.80;;;;;;;3.02;100.00;102049.91;5117543;27;20400;-92
2021/12/21 09:00:51;;;;;;;6.57;2.40;;;;;;;3.14;100.00;102072.50;5113664;27;20416;-90
2021/12/21 09:03:20;;;;;;;11.15;5.35;;;;;;;2.87;100.00;102054.88;5112605;27;20051;-92
2021/12/21 09:05:47;;;;;;;10.82;5.93;;;;;;;2.94;100.00;102058.41;5097404;28;20485;-92
2021/12/21 09:08:13;;;;;;;10.95;5.20;;;;;;;2.86;100.00;102066.06;5100710;27;20039;-92
2021/12/21 09:10:40;;;;;;;10.93;4.43;;;;;;;2.98;100.00;102076.59;5104474;28;20542;-90
2021/12/21 09:13:09;;;;;;;8.15;3.72;;;;;;;2.54;100.00;102037.09;5117507;27;20048;-90
2021/12/21 09:15:37;;;;;;;7.72;3.28;;;;;;;2.95;100.00;102042.03;5096388;28;20132;-90
2021/12/21 09:18:05;;;;;;;5.30;2.28;;;;;;;3.10;100.00;102046.56;5104188;27;20169;-90
2021/12/21 09:20:32;;;;;;;5.85;2.13;;;;;;;3.18;100.00;102032.88;5093724;28;20048;-90
2021/12/21 09:23:00;;;;;;;7.63;2.67;;;;;;;3.15;100.00;102053.56;5095221;28;20477;-90
2021/12/21 09:25:27;;;;;;;5.38;2.17;;;;;;;3.15;100.00;102027.69;5113888;27;20538;-91
2021/12/21 09:27:55;;;;;;;5.65;2.40;;;;;;;3.16;100.00;102050.09;5105130;27;20043;-90
2021/12/21 09:30:24;;;;;;;6.63;2.67;;;;;;;3.39;100.00;102068.53;5074257;28;20048;-90
2021/12/21 09:32:51;;;;;;;9.07;3.28;;;;;;;3.37;100.00;102059.03;5110160;28;20058;-90
2021/12/21 09:35:20;;;;;;;10.80;3.25;;;;;;;3.34;100.00;102065.00;5103792;28;20378;-90
2021/12/21 09:37:47;;;;;;;9.02;3.67;;;;;;;3.44;100.00;102059.97;5084701;28;20054;-91
2021/12/21 09:40:18;;;;;;;8.05;2.50;;;;;;;3.35;100.00;102045.19;5103444;28;20062;-90
2021/12/21 09:42:46;;;;;;;7.03;2.42;;;;;;;3.25;100.00;102058.84;5091781;27;20694;-90
2021/12/21 09:45:14;;;;;;;6.03;2.13;;;;;;;3.34;100.00;102039.13;5092747;27;21209;-90
2021/12/21 09:47:41;;;;;;;5.07;1.98;;;;;;;3.44;100.00;102040.13;5087220;28;20048;-90
2021/12/21 09:50:10;;;;;;;5.97;1.90;;;;;;;3.22;100.00;102028.59;5106565;28;20739;-91
2021/12/21 09:52:37;;;;;;;6.72;2.78;;;;;;;3.00;100.00;102011.94;5091695;28;20435;-90
2021/12/21 09:55:08;;;;;;;8.05;2.30;;;;;;;2.92;100.00;102014.41;5112303;28;20552;-90
2021/12/21 09:57:35;;;;;;;6.43;2.58;;;;;;;3.13;100.00;102042.28;5104042;28;20047;-90
2021/12/21 10:00:08;;;;;;;5.85;2.35;;;;;;;3.07;100.00;102026.69;5090285;28;20051;-91
2021/12/21 10:02:35;;;;;;;5.72;2.30;;;;;;;3.27;100.00;102036.44;5104295;27;20039;-90
2021/12/21 10:05:10;;;;;;;5.65;1.85;;;;;;;3.17;100.00;102017.31;5101180;28;20409;-90
2021/12/21 10:07:37;;;;;;;5.07;2.10;;;;;;;3.11;100.00;102018.09;5107816;28;20048;-91
2021/12/21 10:10:10;;;;;;;4.45;1.80;;;;;;;3.13;100.00;102038.84;5095612;28;20062;-90
2021/12/21 10:12:40;;;;;;;3.67;1.90;;;;;;;3.20;100.00;102031.16;5098670;27;20564;-89
2021/12/21 10:15:20;;;;;;;4.68;1.73;;;;;;;3.34;100.00;102033.09;5116649;27;20765;-91
2021/12/21 10:17:53;;;;;;;5.20;1.88;;;;;;;3.19;100.00;102039.81;5089807;28;20036;-91
2021/12/21 10:20:43;;;;;;;5.22;1.90;;;;;;;3.17;100.00;102041.50;5098270;28;20047;-90
2021/12/21 10:23:25;;;;;;;3.95;1.50;;;;;;;3.41;100.00;102047.84;5097452;27;20042;-90
2021/12/21 10:25:57;;;;;;;5.55;2.10;;;;;;;3.01;100.00;102047.28;5122522;27;20043;-90
2021/12/21 10:28:48;;;;;;;7.47;2.80;;;;;;;3.17;100.00;102032.84;5110165;28;20051;-90
2021/12/21 10:31:15;;;;;;;6.72;2.80;;;;;;;3.08;100.00;102051.75;5094777;28;20051;-91
2021/12/21 10:33:45;;;;;;;6.78;2.92;;;;;;;3.11;100.00;102056.06;5095007;28;20062;-92
2021/12/21 10:36:13;;;;;;;6.90;2.72;;;;;;;3.14;100.00;102025.06;5113179;27;20469;-90
2021/12/21 10:38:53;;;;;;;7.70;2.30;;;;;;;3.24;100.00;102050.22;5093527;28;20058;-89
2021/12/21 10:41:52;;;;;;;5.05;2.00;;;;;;;3.33;100.00;102036.50;5092840;27;20429;-92
2021/12/21 10:44:20;;;;;;;5.15;1.92;;;;;;;3.60;100.00;102036.00;5068774;27;20044;-91
2021/12/21 10:46:50;;;;;;;5.43;2.00;;;;;;;3.41;100.00;102046.13;5102690;28;20382;-90
2021/12/21 10:49:32;;;;;;;5.00;1.95;;;;;;;3.19;100.00;102026.00;5096724;28;20039;-93
2021/12/21 10:52:04;;;;;;;4.85;1.90;;;;;;;3.37;100.00;102033.13;5095746;28;20382;-92
2021/12/21 10:54:36;;;;;;;4.40;1.83;;;;;;;3.45;100.00;102017.69;5095509;28;20412;-93
2021/12/21 10:57:10;;;;;;;5.37;1.97;;;;;;;3.36;100.00;102047.78;5095727;28;20502;-92
2021/12/21 10:59:40;;;;;;;4.97;1.70;;;;;;;3.00;100.00;101988.66;5095997;28;20051;-92
2021/12/21 11:02:20;;;;;;;5.80;2.00;;;;;;;3.19;100.00;102003.56;5095911;28;20043;-92
2021/12/21 11:04:54;;;;;;;4.50;1.85;;;;;;;3.50;100.00;102029.84;5096082;28;20071;-92
2021/12/21 11:09:57;;;;;;;4.35;1.70;;;;;;;3.25;100.00;101968.25;5113090;28;20105;-92
2021/12/21 11:12:26;;;;;;;4.00;1.90;;;;;;;3.50;100.00;102027.25;5094816;28;20044;-92
2021/12/21 11:14:55;;;;;;;4.45;1.92;;;;;;;3.46;100.00;102022.88;5095690;28;20065;-92
2021/12/21 11:17:22;;;;;;;4.10;1.55;;;;;;;3.45;100.00;102023.72;5082313;28;20053;-91
2021/12/21 11:19:51;;;;;;;3.95;1.77;;;;;;;3.44;100.00;101992.66;5094902;28;20138;-91
2021/12/21 11:22:21;;;;;;;5.30;1.95;;;;;;;3.22;100.00;101990.69;5090433;28;20524;-92
2021/12/21 11:24:48;;;;;;;5.40;1.80;;;;;;;3.27;100.00;101993.31;5117869;28;20055;-91
2021/12/21 11:27:18;;;;;;;4.75;1.70;;;;;;;3.20;100.00;102027.72;5092452;28;20393;-91
2021/12/21 11:29:46;;;;;;;3.55;1.52;;;;;;;3.34;100.00;102031.38;5094022;28;20503;-90
2021/12/21 11:32:14;;;;;;;4.53;1.85;;;;;;;3.65;100.00;102013.63;5090594;28;20053;-91
2021/12/21 11:35:08;;;;;;;4.18;1.80;;;;;;;3.23;100.00;101991.53;5111611;28;20062;-91
2021/12/21 11:37:31;;;;;;;4.30;1.70;;;;;;;3.16;100.00;101985.41;5111290;28;20040;-90
2021/12/21 11:40:01;;;;;;;4.07;1.80;;;;;;;3.03;100.00;101971.44;5096193;28;20079;-90
2021/12/21 11:42:46;;;;;;;5.40;2.10;;;;;;;3.05;100.00;101961.13;5093330;28;20047;-91
2021/12/21 11:45:17;;;;;;;3.47;1.58;;;;;;;3.53;100.00;102006.56;5094601;28;20050;-91
2021/12/21 11:47:53;;;;;;;3.60;1.50;;;;;;;3.45;100.00;101989.19;5090239;28;20043;-91
2021/12/21 11:50:20;;;;;;;5.10;1.92;;;;;;;3.20;100.00;101958.69;5101574;27;20097;-91
2021/12/21 11:52:52;;;;;;;4.22;1.70;;;;;;;3.23;100.00;101963.06;5101392;27;20630;-91
2021/12/21 11:55:23;;;;;;;4.55;2.00;;;;;;;3.21;100.00;101959.59;5078103;28;20048;-91
2021/12/21 11:58:13;;;;;;;4.57;1.67;;;;;;;3.32;100.00;101964.91;5087463;28;20134;-91
2021/12/21 12:00:48;;;;;;;4.97;1.73;;;;;;;3.35;100.00;101920.94;5098312;28;20058;-91
2021/12/21 12:03:20;;;;;;;4.18;2.10;;;;;;;3.53;100.00;101996.22;5097969;28;20047;-91
2021/12/21 12:05:54;;;;;;;3.60;1.83;;;;;;;3.28;100.00;101951.03;5095052;28;20044;-91
2021/12/21 12:08:22;;;;;;;6.45;2.30;;;;;;;3.43;100.00;101947.75;5107284;28;20496;-91
2021/12/21 12:10:58;;;;;;;3.72;1.75;;;;;;;3.76;100.00;101990.44;5097553;28;20054;-91
2021/12/21 12:13:25;;;;;;;5.72;2.17;;;;;;;3.91;100.00;101988.00;5097218;28;20052;-91
2021/12/21 12:16:07;;;;;;;4.93;1.98;;;;;;;3.34;100.00;101934.72;5097684;28;20412;-91
2021/12/21 12:18:41;;;;;;;6.43;1.95;;;;;;;3.91;100.00;101981.94;5097562;28;20047;-91
2021/12/21 12:21:21;;;;;;;5.93;1.83;;;;;;;4.06;100.00;101981.22;5097269;28;20055;-92
2021/12/21 12:23:57;;;;;;;6.47;1.60;;;;;;;4.23;100.00;101953.72;5104011;27;20089;-92
2021/12/21 12:26:38;;;;;;;3.72;1.45;;;;;;;4.30;100.00;101976.25;5098418;28;20057;-92
2021/12/21 12:29:18;;;;;;;5.75;1.90;;;;;;;4.30;100.00;101971.06;5096950;28;20516;-91
2021/12/21 12:31:58;;;;;;;6.03;1.98;;;;;;;4.12;100.00;101966.56;5115151;28;20051;-91
2021/12/21 12:34:29;;;;;;;4.93;1.83;;;;;;;3.79;100.00;101938.66;5097043;28;20051;-91
2021/12/21 12:36:56;;;;;;;3.78;1.58;;;;;;;3.66;100.00;101916.06;5087595;28;20142;-91
2021/12/21 12:39:29;;;;;;;5.90;1.90;;;;;;;4.19;100.00;101975.28;5085125;28;20052;-91
2021/12/21 12:42:06;;;;;;;5.18;2.10;;;;;;;3.77;100.00;101893.72;5097685;28;20503;-91
2021/12/21 12:44:35;;;;;;;6.07;2.10;;;;;;;3.54;100.00;101934.91;5097064;28;20039;-91
2021/12/21 12:47:08;;;;;;;6.88;2.35;;;;;;;3.89;100.00;101939.59;5089417;28;20047;-91
2021/12/21 12:49:40;;;;;;;9.38;2.45;;;;;;;3.70;100.00;101923.88;5114969;28;20062;-91
2021/12/21 12:52:14;;;;;;;6.28;2.17;;;;;;;3.84;100.00;101960.28;5114674;27;20051;-91